Aktualne dane pomiarowe

Uwaga, wersja testowa! Automatyczne pobieranie danych za pomocą narzędzi lub skryptów to umożliwiających jest zabronione.

Dane meteo z obszaru Polski uzyskane na podstawie depesz SYNOP pobieranych co godzinę z NWS. Najedź myszką na symbol przedstawiony w tabeli, aby uzyskać informacje co do jego znaczenia. Prosimy pamiętać, że to testowa wersja strony, która jeszcze nie jest ukończona. Stworzono również jest krótki FAQ dotyczący korzystania z tej podstrony Anomalie temperatury w chwili obecnej odniesione są do okresu referencyjnego 1951-2016. Okres ten będzie później zmieniony na 1981-2010. Kliknij ikonę aby pobrać plik CSV. Kliknij ikonę aby wygenerować mapę synoptyczną dla danego terminu.

Wybierz Datę:    

        

Kętrzyn (12185)

Dane terminowe dla wybranej stacji. Kliknij datę, aby otrzymać dane z tego terminu dla wszystkich stacji.

TemperaturaZachmurzenieWiatrCiśnienieOpadyPogoda
 Data t td wb tx tn tg rh  Nt Nl Cl Cm Ch ws wd g1 g2 wx mslp ppp ch 24h 12h t ww ww w1 w2  
2019-08-08 23:00:00 14.4 13.3 13.6--- 9345.0--2wx--21009.9 996.7 0.2---wx-----
2019-08-08 22:00:00 15.6 12.7 13.6--- 8350.0--4wx--41010.3 997.2 0.9---------
2019-08-08 21:00:00 16.0 13.8 14.5--- 8745.0--2wx--21009.2 996.1 0.0---wx-----
2019-08-08 20:00:00 15.7 14.1 14.6--- 9035.0--2wx---1009.6 996.5 0.9---------
2019-08-08 19:00:00 16.8 14.3 15.1--- 8535.0--1wx--11009.3 996.3 0.7---------
2019-08-08 18:00:00 18.6 14.7 16.0 22.9 16.5- 7827.0wxwxwx2wx-1321009.1 996.1 0.7- 0.512wx-w1--
2019-08-08 17:00:00 20.6 14.3 16.5--- 6730.0wxwxwx5wx--51008.5 995.6 0.9---------
2019-08-08 16:00:00 21.5 14.4 16.9--- 6440.0wxwxwxwxwx5wx---1008.4 995.6 1.2---------
2019-08-08 15:00:00 20.8 13.2 16.0--- 6245.0wxwxwx5wx-1351008.3 995.4 1.4---wx---
2019-08-08 14:00:00 21.0 14.4 16.7--- 6645.0wxwxwx6wx-1261007.5 994.7 1.2---------
2019-08-08 13:00:00 21.6 15.4 17.5--- 6835.0wxwxwx6wx111261007.2 994.4 1.4---------
2019-08-08 12:00:00 21.8 14.9 17.3--- 6535.0wxwxwx6wx111561006.8 994.0 1.2- 0.56wx-w1--
2019-08-08 11:00:00 21.0 16.0 17.6--- 7327.0wxwxwxwx6wx151561006.3 993.5 1.2---wx---
2019-08-08 10:00:00 20.4 16.4 17.6--- 7829.0wxwxwxwx5wx121351005.8 993.0 1.6---------
2019-08-08 09:00:00 19.7 15.8 17.0--- 7835.0wxwxwxwx5wx121251005.7 992.8 2.1---wx-w1--
2019-08-08 08:00:00 17.4 15.0 15.7--- 8640.0wxwxwxwx5wx--51005.3 992.3 2.5---------
2019-08-08 07:00:00 17.0 16.5 16.6--- 9723.0wxwxwxwx4wx--41004.4 991.4 1.5---wx-w1--
2019-08-08 06:00:00 16.7 16.5 16.5 21.7 16.5 16 9910.0wxwxwx4wx-841003.7 990.7 0.9 65.0 65.012wx---- 5.7
2019-08-08 05:00:00 16.8 16.6 16.6--- 994.9--3wx---1002.8 989.8 -0.3---wx-----
2019-08-08 04:00:00 16.6 16.4 16.4--- 994.4--3wx---1002.9 989.9 -0.9---wx-----
2019-08-08 03:00:00 16.6 16.4 16.4--- 994.5--3wx-831002.8 989.8 -1.4---wx-----
2019-08-08 02:00:00 17.1 16.9 16.9--- 991.0--3wx--31003.0 990.1 -1.7---wx-----
2019-08-08 01:00:00 17.2 17.0 17.0--- 991.0--3wx--31003.8 990.8 -1.1---wx-----
2019-08-08 00:00:00 18.0 17.5 17.6--- 973.8--2wx-821004.1 991.2 -1.2- 5.06wx-----
2019-08-07 23:00:00 18.4 17.2 17.5--- 938.0--2wx--21004.7 991.8 -0.9---wx-----
2019-08-07 22:00:00 19.0 16.6 17.3--- 8626.0--1wx--11004.8 991.9 -1.1---------
2019-08-07 21:00:00 19.3 16.7 17.5--- 8540.0--3wx-831005.3 992.4 -0.9---------
2019-08-07 20:00:00 19.3 16.0 17.0--- 8140.0--3wx---1005.6 992.7 -0.7---------
2019-08-07 19:00:00 19.9 15.5 16.9--- 7630.0--2wx---1005.9 993.0 -0.5---------
2019-08-07 18:00:00 21.7 15.3 17.5 26.0 16.7- 6730.0wxwxwxwx2wx-1021006.1 993.3 -0.6--12------
2019-08-07 17:00:00 23.2 14.7 17.7--- 5935.0wxwxwxwx1wx--11006.1 993.4 -0.7---------
2019-08-07 16:00:00 24.2 13.4 17.5--- 5135.0wxwxwxwx3wx-1031006.2 993.5 -1.1---------
2019-08-07 15:00:00 25.2 14.3 18.3--- 5145.0wxwxwx4wx-1041006.5 993.9 -1.1---------
2019-08-07 14:00:00 25.0 14.5 18.3--- 5235.0wxwxwxwx3wx9--1006.8 994.1 -1.0---------
2019-08-07 13:00:00 24.8 14.9 18.5--- 5435.0wxwxwxwx4wx101041007.3 994.6 -0.8---------
2019-08-07 12:00:00 25.1 15.7 19.0--- 5628.0wxwxwxwx4wx9941007.7 995.0 -0.4--6wx-w1--
2019-08-07 11:00:00 23.7 16.2 18.7--- 6329.0wxwxwxwxwx4wx-741007.8 995.1 -0.3---------
2019-08-07 10:00:00 22.0 16.9 18.5--- 7330.0wxwxwxwxwx2wx-921008.2 995.4 0.2---------
2019-08-07 09:00:00 20.5 17.1 18.1--- 8129.0wxwxwxwx4wx9--1008.3 995.4 0.3---wx-w1--
2019-08-07 08:00:00 19.3 16.9 17.6--- 8621.0wxwxwxwxwx2wx8821008.3 995.4 0.3---------
2019-08-07 07:00:00 17.2 16.4 16.6--- 9512.0wxwxwxwx1wx--11008.2 995.2 0.4---wx---
2019-08-07 06:00:00 16.7 16.2 16.3 17.7 14.9 14 9711.0wxwxwx2wx--21008.1 995.1 0.3 10.4 0.912wx---- 6.5
2019-08-07 05:00:00 16.2 15.9 16.0--- 986.0--2wx--21008.2 995.1 0.7---wx-----
2019-08-07 04:00:00 15.7 15.5 15.5--- 997.0--2wx---1007.9 994.8 -0.2---wx-----
2019-08-07 03:00:00 15.6 15.4 15.4--- 995.0--2wx--21007.9 994.8 0.3---wx-----
2019-08-07 02:00:00 15.8 15.3 15.4--- 978.0--2wx--21007.5 994.4 -1.6---wx-----
2019-08-07 01:00:00 15.9 15.4 15.5--- 9711.0--2wx--21008.1 995.0 -0.3---------
2019-08-07 00:00:00 16.2 15.6 15.7--- 9614.0--2wx--21007.5 994.5 -0.8- 0.86wx-----
1.7 ms

 

Print Friendly, PDF & Email